Time;durP1;ratioP1;P1;durP2;ratioP2;P2;SDS_P1;SDS_P2;PMS_P1;PMS_P2;Temp;Humidity;BMP_temperature;BMP_pressure;BME280_temperature;BME280_humidity;BME280_pressure;Samples;Min_cycle;Max_cycle;Signal;HPM_P1;HPM_P2
2023/04/19 00:02:24;;;;;;;2.97;2.70;;;;;;;14.69;62.89;100933.66;4955118;29;20055;-79
2023/04/19 00:04:52;;;;;;;2.78;2.53;;;;;;;14.80;63.07;100930.75;4954868;29;20426;-79
2023/04/19 00:07:20;;;;;;;5.68;2.80;;;;;;;14.82;62.87;100931.28;4954435;29;20058;-79
2023/04/19 00:09:48;;;;;;;3.97;2.75;;;;;;;14.76;62.80;100925.84;4954926;29;20062;-79
2023/04/19 00:12:16;;;;;;;6.00;2.63;;;;;;;14.79;62.36;100932.69;4954466;29;20062;-79
2023/04/19 00:14:43;;;;;;;4.30;2.60;;;;;;;14.79;62.03;100929.94;4954124;29;20058;-79
2023/04/19 00:17:11;;;;;;;2.95;2.45;;;;;;;14.78;62.24;100928.31;4954994;29;20082;-79
2023/04/19 00:19:40;;;;;;;2.70;2.40;;;;;;;14.81;62.65;100924.13;4955236;29;20446;-79
2023/04/19 00:22:08;;;;;;;4.95;2.33;;;;;;;14.84;63.12;100926.28;4955031;28;20050;-78
2023/04/19 00:24:35;;;;;;;2.78;2.22;;;;;;;14.89;62.50;100923.44;4941414;29;20058;-79
2023/04/19 00:27:03;;;;;;;3.08;2.47;;;;;;;14.88;62.47;100922.63;4937449;29;20051;-79
2023/04/19 00:29:31;;;;;;;4.00;2.78;;;;;;;14.89;62.21;100921.50;4954866;29;20454;-79
2023/04/19 00:31:59;;;;;;;3.25;2.15;;;;;;;14.91;61.42;100921.22;4954548;29;20051;-79
2023/04/19 00:34:27;;;;;;;4.00;2.83;;;;;;;15.01;62.27;100921.03;4953402;29;20474;-80
2023/04/19 00:36:56;;;;;;;6.82;3.00;;;;;;;15.02;60.73;100917.13;4937365;29;20059;-80
2023/04/19 00:39:23;;;;;;;3.67;2.72;;;;;;;15.06;61.92;100909.13;4954425;29;20517;-79
2023/04/19 00:41:51;;;;;;;4.63;2.67;;;;;;;15.03;61.34;100907.78;4953928;29;20055;-79
2023/04/19 00:44:19;;;;;;;3.08;2.67;;;;;;;15.09;61.21;100914.00;4953701;29;20051;-78
2023/04/19 00:46:48;;;;;;;6.90;3.08;;;;;;;15.09;61.21;100910.41;4952601;29;20051;-79
2023/04/19 00:49:19;;;;;;;3.78;3.00;;;;;;;15.18;60.38;100912.19;4953772;29;20059;-79
2023/04/19 00:51:50;;;;;;;5.50;2.92;;;;;;;15.20;60.34;100906.38;4952498;29;20062;-79
2023/04/19 00:54:19;;;;;;;4.03;2.58;;;;;;;15.21;60.26;100902.50;4952798;29;20059;-79
2023/04/19 00:56:49;;;;;;;3.03;2.40;;;;;;;15.15;60.69;100906.47;4953951;29;20066;-79
2023/04/19 00:59:18;;;;;;;4.20;3.17;;;;;;;15.18;61.39;100901.19;4954160;29;20047;-79
2023/04/19 01:01:46;;;;;;;3.15;2.45;;;;;;;15.11;61.26;100897.19;4953229;29;20055;-79
2023/04/19 01:04:15;;;;;;;6.03;2.92;;;;;;;15.25;60.63;100895.25;4936811;29;20047;-79
2023/04/19 01:06:46;;;;;;;3.70;2.38;;;;;;;15.20;60.61;100898.09;4954321;29;20390;-79
2023/04/19 01:09:14;;;;;;;3.30;2.70;;;;;;;15.23;61.88;100893.91;4954219;29;20055;-79
2023/04/19 01:11:42;;;;;;;4.50;2.70;;;;;;;15.16;60.93;100895.13;4937200;29;20047;-79
2023/04/19 01:14:10;;;;;;;3.22;2.80;;;;;;;15.18;61.14;100897.59;4953929;29;20047;-79
2023/04/19 01:16:38;;;;;;;4.95;2.83;;;;;;;15.17;60.88;100887.69;4954067;29;20047;-79
2023/04/19 01:19:06;;;;;;;2.28;2.08;;;;;;;15.15;60.43;100890.75;4936741;29;20051;-79
2023/04/19 01:21:38;;;;;;;3.70;2.65;;;;;;;15.12;61.87;100896.03;4952574;29;20043;-78
2023/04/19 01:24:06;;;;;;;4.35;3.10;;;;;;;15.13;61.85;100886.66;4936742;29;20154;-79
2023/04/19 01:26:34;;;;;;;5.25;2.70;;;;;;;15.16;61.45;100886.06;4951877;29;20055;-79
2023/04/19 01:29:02;;;;;;;6.38;2.72;;;;;;;15.17;61.60;100882.19;4953770;29;20043;-79
2023/04/19 01:31:30;;;;;;;4.20;2.63;;;;;;;15.22;61.51;100879.31;4952486;29;20054;-79
2023/04/19 01:33:58;;;;;;;4.10;2.30;;;;;;;15.25;61.18;100875.94;4952794;28;20063;-78
2023/04/19 01:36:26;;;;;;;3.05;2.28;;;;;;;15.22;61.48;100867.47;4937489;29;20051;-78
2023/04/19 01:38:54;;;;;;;2.83;2.47;;;;;;;15.21;61.65;100883.22;4953452;29;20047;-79
2023/04/19 01:41:25;;;;;;;3.38;2.70;;;;;;;15.22;61.38;100868.31;4953663;28;20059;-79
2023/04/19 01:43:53;;;;;;;3.28;2.60;;;;;;;15.17;62.39;100866.44;4936755;29;20410;-79
2023/04/19 01:46:21;;;;;;;3.75;2.70;;;;;;;15.16;61.61;100867.56;4935835;29;20418;-78
2023/04/19 01:48:50;;;;;;;3.00;2.47;;;;;;;15.17;64.01;100876.66;4951913;29;20047;-78
2023/04/19 01:51:20;;;;;;;2.83;2.40;;;;;;;15.09;63.06;100869.06;4952965;29;20058;-78
2023/04/19 01:53:53;;;;;;;2.85;2.53;;;;;;;15.08;62.00;100872.97;4953684;29;20402;-79
2023/04/19 01:56:22;;;;;;;;;;;;;;;15.11;61.90;100875.13;4953614;29;20059;-78
2023/04/19 01:58:50;;;;;;;2.05;1.75;;;;;;;15.11;62.00;100867.66;4935774;29;19923;-79
2023/04/19 02:01:19;;;;;;;3.20;2.45;;;;;;;15.15;61.73;100870.66;4952512;29;20501;-78
2023/04/19 02:03:46;;;;;;;3.60;2.08;;;;;;;15.15;63.39;100870.66;4952304;29;20055;-79
2023/04/19 02:06:15;;;;;;;2.70;2.00;;;;;;;15.17;61.91;100865.63;4936135;29;20074;-78
2023/04/19 02:08:43;;;;;;;3.05;2.05;;;;;;;15.13;62.49;100870.94;4936505;29;20043;-78
2023/04/19 02:11:13;;;;;;;3.42;2.47;;;;;;;15.14;62.88;100866.22;4952839;29;20047;-79
2023/04/19 02:13:42;;;;;;;2.75;2.28;;;;;;;15.15;62.82;100862.38;4952723;29;20059;-78
2023/04/19 02:16:10;;;;;;;2.75;2.03;;;;;;;15.15;62.48;100865.94;4953005;29;20047;-79
2023/04/19 02:18:38;;;;;;;3.75;2.60;;;;;;;15.14;62.52;100871.75;4935834;29;20454;-79
2023/04/19 02:21:08;;;;;;;2.17;1.73;;;;;;;15.12;62.45;100862.97;4936119;29;20140;-79
2023/04/19 02:23:35;;;;;;;2.42;2.00;;;;;;;15.17;62.86;100868.41;4951570;29;20062;-78
2023/04/19 02:26:03;;;;;;;3.15;2.58;;;;;;;15.16;62.20;100864.00;4920774;29;20070;-79
2023/04/19 02:28:31;;;;;;;3.20;1.92;;;;;;;15.20;62.30;100858.69;4953281;29;20047;-78
2023/04/19 02:31:04;;;;;;;1.77;1.67;;;;;;;15.21;62.47;100861.16;4920459;29;20047;-78
2023/04/19 02:33:35;;;;;;;2.15;1.77;;;;;;;15.26;61.64;100863.00;4952664;28;20414;-78
2023/04/19 02:36:03;;;;;;;1.95;1.85;;;;;;;15.26;61.94;100854.72;4952585;29;20054;-79
2023/04/19 02:38:32;;;;;;;2.97;2.05;;;;;;;15.26;62.07;100855.53;4935973;29;20055;-79
2023/04/19 02:41:03;;;;;;;2.05;1.85;;;;;;;15.23;63.28;100856.16;4936028;29;20047;-79
2023/04/19 02:43:31;;;;;;;2.00;1.48;;;;;;;15.17;62.67;100855.41;4952675;29;20066;-78
2023/04/19 02:45:59;;;;;;;3.53;1.90;;;;;;;15.12;62.13;100850.00;4954450;28;20066;-79
2023/04/19 02:48:26;;;;;;;2.22;1.52;;;;;;;15.16;62.12;100850.22;4939132;29;20355;-79
2023/04/19 02:50:54;;;;;;;3.08;1.77;;;;;;;15.15;62.63;100843.88;4956486;29;20047;-79
2023/04/19 02:53:23;;;;;;;2.00;1.80;;;;;;;15.20;62.08;100842.97;4938007;29;20721;-78
2023/04/19 02:55:51;;;;;;;4.13;1.85;;;;;;;15.20;62.53;100845.72;4939564;29;20035;-79
2023/04/19 02:58:20;;;;;;;1.55;1.45;;;;;;;15.14;62.42;100844.19;4939294;29;20046;-79
2023/04/19 03:01:04;;;;;;;3.20;2.08;;;;;;;15.10;63.32;100852.25;4955491;29;20078;-79
2023/04/19 03:03:32;;;;;;;1.80;1.48;;;;;;;15.09;63.20;100849.78;4955927;29;20054;-79
2023/04/19 03:06:00;;;;;;;2.50;1.60;;;;;;;15.09;62.98;100845.09;4954505;29;20077;-79
2023/04/19 03:08:28;;;;;;;1.63;1.52;;;;;;;15.10;63.49;100846.72;4938921;29;20410;-79
2023/04/19 03:10:57;;;;;;;1.98;1.52;;;;;;;15.06;63.19;100842.97;4938948;29;20058;-79
2023/04/19 03:13:26;;;;;;;3.05;1.80;;;;;;;15.07;63.79;100847.34;4937963;29;20047;-79
2023/04/19 03:15:54;;;;;;;1.85;1.67;;;;;;;14.95;63.49;100841.53;4938281;29;20050;-79
2023/04/19 03:18:22;;;;;;;2.75;2.10;;;;;;;15.04;64.14;100837.75;4938675;29;20055;-79
2023/04/19 03:20:52;;;;;;;4.38;2.05;;;;;;;14.94;65.04;100845.38;4954987;29;20390;-79
2023/04/19 03:23:20;;;;;;;2.67;1.95;;;;;;;14.94;64.36;100837.94;4938368;29;20055;-79
2023/04/19 03:25:50;;;;;;;2.80;2.03;;;;;;;14.88;64.97;100842.72;4938142;29;20078;-79
2023/04/19 03:28:25;;;;;;;3.33;2.53;;;;;;;14.82;66.86;100838.44;4955210;29;20055;-79
2023/04/19 03:31:11;;;;;;;1.88;1.50;;;;;;;14.77;67.46;100847.59;4955252;29;20051;-78
2023/04/19 03:33:39;;;;;;;2.90;1.77;;;;;;;14.66;67.47;100832.31;4938893;29;20474;-79
2023/04/19 03:36:08;;;;;;;2.20;1.92;;;;;;;14.62;68.92;100834.06;4953725;29;20516;-79
2023/04/19 03:38:38;;;;;;;2.85;1.88;;;;;;;14.56;68.65;100835.25;4953412;29;20055;-79
2023/04/19 03:41:39;;;;;;;3.17;2.88;;;;;;;14.47;68.97;100833.16;4954084;29;20066;-79
2023/04/19 03:44:26;;;;;;;5.55;2.40;;;;;;;14.39;69.74;100836.63;4951881;29;20054;-78
2023/04/19 03:46:54;;;;;;;4.68;1.90;;;;;;;14.29;70.22;100834.03;4953637;29;20055;-80
2023/04/19 03:49:26;;;;;;;4.28;3.10;;;;;;;14.36;69.51;100837.22;4938335;29;20047;-80
2023/04/19 03:52:03;;;;;;;3.95;2.28;;;;;;;14.32;70.44;100828.72;4922372;29;20406;-80
2023/04/19 03:54:33;;;;;;;2.92;2.20;;;;;;;14.28;70.71;100832.38;4922203;29;20066;-80
2023/04/19 03:57:03;;;;;;;4.22;2.67;;;;;;;14.28;71.02;100826.88;4953975;28;20046;-80
2023/04/19 03:59:31;;;;;;;4.75;2.63;;;;;;;14.27;71.37;100825.25;4953365;29;20058;-80
2023/04/19 04:01:59;;;;;;;3.08;2.67;;;;;;;14.24;71.58;100829.41;4931444;29;20058;-80
2023/04/19 04:04:27;;;;;;;10.73;2.88;;;;;;;14.17;71.53;100821.53;4955350;29;20047;-80
2023/04/19 04:06:56;;;;;;;4.07;2.50;;;;;;;14.11;72.93;100826.31;4955433;29;20394;-80
2023/04/19 04:09:24;;;;;;;9.10;2.88;;;;;;;14.13;72.37;100828.72;4955324;29;20051;-80
2023/04/19 04:11:52;;;;;;;3.35;2.40;;;;;;;14.12;72.96;100832.59;4953415;29;20059;-80
2023/04/19 04:14:20;;;;;;;4.10;3.35;;;;;;;14.09;73.42;100827.72;4969565;28;20063;-80
2023/04/19 04:16:48;;;;;;;5.30;3.10;;;;;;;14.03;73.37;100828.91;4937036;29;20051;-80
2023/04/19 04:19:17;;;;;;;4.47;3.42;;;;;;;13.98;74.04;100833.34;4937389;29;20051;-80
2023/04/19 04:21:45;;;;;;;4.03;3.03;;;;;;;13.96;74.98;100824.59;4937728;29;20070;-81
2023/04/19 04:24:13;;;;;;;6.38;3.45;;;;;;;13.93;74.81;100836.19;4953750;29;20047;-81
2023/04/19 04:26:51;;;;;;;6.03;3.08;;;;;;;13.88;76.32;100827.19;4953900;29;20043;-81
2023/04/19 04:29:22;;;;;;;7.30;3.55;;;;;;;13.82;76.08;100829.19;4955200;29;20074;-81
2023/04/19 04:31:52;;;;;;;5.82;3.75;;;;;;;13.77;76.82;100832.00;4936305;29;20051;-80
2023/04/19 04:34:25;;;;;;;4.30;3.38;;;;;;;13.73;76.80;100837.28;4936727;29;20059;-80
2023/04/19 04:37:02;;;;;;;3.85;3.00;;;;;;;13.66;76.85;100836.81;4937373;29;20059;-80
2023/04/19 04:39:33;;;;;;;4.57;3.33;;;;;;;13.59;78.08;100831.66;4951874;29;20402;-81
2023/04/19 04:42:02;;;;;;;5.60;3.70;;;;;;;13.56;77.52;100835.84;4937795;29;20444;-81
2023/04/19 04:44:29;;;;;;;6.93;3.40;;;;;;;13.51;78.20;100835.06;4936881;29;20043;-81
2023/04/19 04:46:57;;;;;;;7.03;3.65;;;;;;;13.53;77.59;100838.34;4953271;29;20055;-81
2023/04/19 04:49:28;;;;;;;10.15;3.60;;;;;;;13.72;77.17;100846.63;4937686;29;20047;-83
2023/04/19 04:51:58;;;;;;;5.78;3.80;;;;;;;13.97;75.69;100848.22;4953986;29;20062;-83
2023/04/19 04:54:28;;;;;;;4.45;3.80;;;;;;;14.21;74.86;100838.25;4953014;29;20499;-83
2023/04/19 04:56:57;;;;;;;6.25;3.78;;;;;;;14.34;74.16;100847.72;4936781;29;20059;-84
2023/04/19 04:59:26;;;;;;;4.18;3.60;;;;;;;14.33;73.77;100846.88;4954188;29;20054;-84
2023/04/19 05:01:54;;;;;;;8.48;3.58;;;;;;;14.26;74.11;100849.19;4937470;29;20394;-84
2023/04/19 05:04:22;;;;;;;6.32;4.00;;;;;;;14.52;73.20;100857.88;4920477;29;20066;-85
2023/04/19 05:06:50;;;;;;;4.78;3.63;;;;;;;14.55;72.81;100845.44;4953415;28;20050;-84
2023/04/19 05:09:23;;;;;;;5.95;3.72;;;;;;;14.43;73.42;100854.19;4920112;29;20055;-84
2023/04/19 05:11:51;;;;;;;4.93;3.65;;;;;;;14.54;73.03;100857.59;4952312;29;20054;-85
2023/04/19 05:14:19;;;;;;;5.00;3.20;;;;;;;14.55;73.38;100845.44;4951954;29;20065;-84
2023/04/19 05:16:47;;;;;;;4.88;3.38;;;;;;;14.63;72.96;100853.00;4935741;29;20073;-83
2023/04/19 05:19:15;;;;;;;4.78;3.25;;;;;;;14.67;72.08;100846.91;4951188;29;20054;-85
2023/04/19 05:21:49;;;;;;;4.72;3.88;;;;;;;14.77;72.44;100844.81;4937593;29;20058;-85
2023/04/19 05:24:17;;;;;;;5.15;3.80;;;;;;;14.93;71.24;100847.31;4937260;29;20054;-85
2023/04/19 05:26:46;;;;;;;5.45;3.35;;;;;;;14.99;71.31;100843.34;4938037;29;20062;-84
2023/04/19 05:29:16;;;;;;;4.90;3.58;;;;;;;15.00;70.30;100849.69;4937178;29;20138;-85
2023/04/19 05:31:49;;;;;;;;;;;;;;;15.00;70.13;100850.50;4937308;29;20047;-83
2023/04/19 05:34:30;;;;;;;5.07;3.90;;;;;;;15.20;68.99;100853.19;4952974;29;19926;-84
2023/04/19 05:36:59;;;;;;;3.80;3.13;;;;;;;15.42;68.47;100849.72;4934613;29;20530;-84
2023/04/19 05:39:27;;;;;;;7.03;3.92;;;;;;;15.50;68.00;100850.94;4939942;28;20051;-84
2023/04/19 05:41:55;;;;;;;6.35;3.50;;;;;;;15.71;68.26;100851.34;4954151;29;20055;-89
2023/04/19 05:44:23;;;;;;;9.15;3.72;;;;;;;15.86;67.73;100855.72;4953025;29;20047;-91
2023/04/19 05:46:51;;;;;;;5.45;3.90;;;;;;;15.91;67.51;100855.59;4955710;29;20051;-91
2023/04/19 05:49:37;;;;;;;6.15;3.70;;;;;;;16.12;66.67;100855.16;4954210;29;20071;-91
2023/04/19 05:52:17;;;;;;;6.68;3.88;;;;;;;16.25;64.92;100867.31;4937504;29;20051;-90
2023/04/19 05:54:49;;;;;;;6.32;4.25;;;;;;;16.19;65.73;100861.06;4952915;29;20407;-91
2023/04/19 05:57:17;;;;;;;7.82;3.88;;;;;;;16.12;65.97;100867.03;4936503;29;20410;-91
2023/04/19 05:59:45;;;;;;;7.90;3.83;;;;;;;16.22;65.36;100859.63;4952713;29;20403;-90
2023/04/19 06:02:16;;;;;;;8.40;4.00;;;;;;;16.35;65.39;100860.72;4936701;29;20400;-91
2023/04/19 06:04:45;;;;;;;7.35;4.30;;;;;;;16.36;64.36;100863.19;4944895;29;20043;-91
2023/04/19 06:07:14;;;;;;;6.05;4.25;;;;;;;16.53;63.63;100856.16;4936313;29;20055;-91
2023/04/19 06:09:58;;;;;;;6.05;4.07;;;;;;;16.66;63.35;100857.22;4936189;29;20055;-90
2023/04/19 06:12:26;;;;;;;8.90;3.92;;;;;;;16.85;62.46;100857.00;4936301;29;20051;-91
2023/04/19 06:14:54;;;;;;;4.85;3.70;;;;;;;17.06;61.77;100865.63;4936629;29;20043;-91
2023/04/19 06:17:24;;;;;;;7.47;3.67;;;;;;;17.08;59.89;100859.78;4936658;29;20394;-91
2023/04/19 06:19:53;;;;;;;7.35;3.28;;;;;;;17.30;59.05;100852.56;4952697;28;20054;-92
2023/04/19 06:22:21;;;;;;;9.20;4.43;;;;;;;17.53;59.21;100855.22;4957891;29;20043;-91
2023/04/19 06:24:49;;;;;;;4.60;3.13;;;;;;;17.63;57.53;100851.34;4957446;29;20044;-91
2023/04/19 06:27:16;;;;;;;4.50;3.20;;;;;;;17.66;58.54;100843.25;4956507;29;20536;-94
2023/04/19 06:29:44;;;;;;;3.58;1.30;;;;;;;17.12;54.35;100851.66;4958083;29;20132;-92
2023/04/19 06:32:12;;;;;;;2.60;1.63;;;;;;;17.17;54.70;100855.09;4957158;29;20394;-90
2023/04/19 06:34:40;;;;;;;2.13;1.30;;;;;;;17.38;55.18;100846.25;4956615;29;20058;-89
2023/04/19 06:37:08;;;;;;;1.40;1.13;;;;;;;17.44;54.74;100847.72;4956718;29;20056;-92
2023/04/19 06:39:36;;;;;;;3.83;1.45;;;;;;;17.60;54.64;100850.84;4956660;29;20055;-90
2023/04/19 06:42:04;;;;;;;2.05;1.30;;;;;;;17.48;53.67;100852.59;4956634;29;20059;-90
2023/04/19 06:44:33;;;;;;;1.92;1.23;;;;;;;17.29;53.71;100862.81;4939690;29;20055;-91
2023/04/19 06:47:01;;;;;;;1.92;1.60;;;;;;;17.23;53.57;100854.94;4957072;29;20058;-90
2023/04/19 06:49:29;;;;;;;4.18;1.45;;;;;;;17.26;52.07;100857.09;4956990;29;20529;-90
2023/04/19 06:51:58;;;;;;;1.88;1.20;;;;;;;17.30;53.58;100855.34;4956147;29;20050;-90
2023/04/19 06:54:26;;;;;;;1.63;1.50;;;;;;;17.38;52.90;100850.94;4939689;29;20050;-89
2023/04/19 06:56:55;;;;;;;2.30;1.70;;;;;;;17.32;54.41;100859.38;4956765;29;20051;-90
2023/04/19 06:59:27;;;;;;;1.55;1.45;;;;;;;17.34;53.07;100859.06;4956662;29;20380;-90
2023/04/19 07:01:56;;;;;;;3.75;1.63;;;;;;;17.40;52.17;100859.75;4956963;29;20051;-94
2023/04/19 07:04:25;;;;;;;3.05;1.90;;;;;;;17.50;52.39;100853.13;4956617;29;20390;-91
2023/04/19 07:06:53;;;;;;;3.13;1.65;;;;;;;17.45;52.63;100859.63;4956766;29;20050;-91
2023/04/19 07:09:21;;;;;;;2.90;2.13;;;;;;;17.56;51.71;100852.63;4956763;29;20051;-91
2023/04/19 07:11:50;;;;;;;1.63;1.52;;;;;;;17.42;52.21;100855.53;4956656;28;20059;-91
2023/04/19 07:14:18;;;;;;;2.65;1.60;;;;;;;17.51;51.99;100863.03;4956124;28;20395;-90
2023/04/19 07:16:46;;;;;;;2.28;1.85;;;;;;;17.75;52.15;100856.28;4939354;29;20035;-90
2023/04/19 07:19:14;;;;;;;1.77;1.63;;;;;;;18.07;52.23;100848.69;4956442;29;20039;-90
2023/04/19 07:21:42;;;;;;;2.55;1.73;;;;;;;18.27;50.99;100867.44;4955955;29;20054;-89
2023/04/19 07:24:10;;;;;;;1.90;1.70;;;;;;;18.23;49.92;100857.34;4955838;29;20062;-89
2023/04/19 07:26:38;;;;;;;2.63;1.70;;;;;;;18.35;49.78;100857.50;4955333;29;20077;-89
2023/04/19 07:29:06;;;;;;;3.47;1.60;;;;;;;18.33;50.14;100861.75;4954176;29;20043;-90
2023/04/19 07:31:34;;;;;;;4.95;1.83;;;;;;;18.35;51.22;100851.97;4954131;28;20507;-90
2023/04/19 07:34:02;;;;;;;2.15;1.50;;;;;;;18.29;51.20;100856.03;4955139;29;20063;-90
2023/04/19 07:36:30;;;;;;;5.13;2.20;;;;;;;18.22;51.53;100853.75;4938960;29;20498;-93
2023/04/19 07:38:58;;;;;;;2.10;1.90;;;;;;;18.22;51.07;100856.53;4955245;29;20047;-86
2023/04/19 07:41:26;;;;;;;3.55;2.42;;;;;;;18.11;50.76;100846.91;4954712;29;20603;-89
2023/04/19 07:43:54;;;;;;;6.28;2.65;;;;;;;18.01;51.72;100842.47;4955645;29;20051;-90
2023/04/19 07:46:22;;;;;;;2.50;2.08;;;;;;;18.04;51.71;100849.31;4955691;29;20047;-87
2023/04/19 07:48:50;;;;;;;4.15;2.55;;;;;;;18.20;52.13;100841.38;4956297;29;20051;-94
2023/04/19 07:51:22;;;;;;;3.47;2.15;;;;;;;18.54;50.53;100848.03;4938393;29;20051;-93
2023/04/19 07:53:50;;;;;;;4.40;2.60;;;;;;;18.55;51.17;100844.13;4955661;29;20059;-93
2023/04/19 07:56:19;;;;;;;2.35;2.15;;;;;;;18.52;51.21;100845.59;4956351;29;20517;-93
2023/04/19 07:58:46;;;;;;;3.55;2.33;;;;;;;18.65;50.41;100845.72;4955454;29;20051;-93
2023/04/19 08:01:28;;;;;;;4.25;2.40;;;;;;;18.66;49.91;100844.59;4955015;29;20047;-92
2023/04/19 08:03:59;;;;;;;4.10;2.40;;;;;;;18.80;49.08;100848.00;4954403;29;20047;-94
2023/04/19 08:06:29;;;;;;;2.95;2.30;;;;;;;18.88;49.08;100846.34;4954958;29;20530;-92
2023/04/19 08:08:57;;;;;;;4.63;2.03;;;;;;;18.95;48.98;100840.28;4955659;29;20050;-93
2023/04/19 08:11:25;;;;;;;5.07;2.78;;;;;;;19.00;49.81;100842.88;4938445;29;20601;-93
2023/04/19 08:13:53;;;;;;;3.78;2.30;;;;;;;18.82;50.19;100846.84;4961484;29;20057;-93
2023/04/19 08:16:40;;;;;;;5.70;2.80;;;;;;;18.98;50.92;100839.63;4962572;29;20047;-95
2023/04/19 08:19:29;;;;;;;3.33;2.72;;;;;;;18.96;49.82;100850.22;4966857;28;20055;-95
2023/04/19 08:21:57;;;;;;;4.55;2.80;;;;;;;19.11;49.24;100837.00;4956656;29;20067;-95
2023/04/19 08:24:25;;;;;;;5.88;3.10;;;;;;;18.99;49.71;100841.25;4967173;29;20050;-96
2023/04/19 08:26:56;;;;;;;5.07;2.50;;;;;;;19.17;49.20;100838.44;5039124;23;20053;-96
2023/04/19 08:29:26;;;;;;;6.35;2.97;;;;;;;19.24;49.84;100827.63;5053442;28;20049;-93
2023/04/19 08:31:54;;;;;;;3.53;2.72;;;;;;;19.34;49.27;100829.22;5040828;28;20056;-91
2023/04/19 08:34:22;;;;;;;5.22;2.72;;;;;;;19.55;49.46;100834.81;5068703;28;20056;-96
2023/04/19 08:36:50;;;;;;;4.35;2.45;;;;;;;19.57;48.64;100828.94;5053489;28;20060;-90
2023/04/19 08:39:31;;;;;;;3.63;2.55;;;;;;;19.66;48.26;100823.34;5052207;28;20049;-90
2023/04/19 08:42:06;;;;;;;4.93;3.20;;;;;;;19.49;47.96;100827.03;5034998;28;20052;-89
2023/04/19 08:44:53;;;;;;;3.20;2.85;;;;;;;19.53;48.23;100826.03;5051784;28;20053;-87
2023/04/19 08:47:24;;;;;;;3.50;2.78;;;;;;;19.45;49.43;100818.53;5051339;28;20061;-86
2023/04/19 08:50:04;;;;;;;3.95;2.90;;;;;;;19.52;47.24;100818.03;5051271;28;20037;-86
2023/04/19 08:52:51;;;;;;;3.92;3.25;;;;;;;19.72;48.04;100825.59;5052797;28;20399;-86
2023/04/19 08:55:30;;;;;;;9.85;3.63;;;;;;;19.79;47.28;100822.25;5051253;28;20041;-86
2023/04/19 08:57:58;;;;;;;7.10;3.28;;;;;;;19.80;46.42;100817.53;5052079;28;20056;-86
2023/04/19 09:00:26;;;;;;;4.22;3.03;;;;;;;19.88;47.57;100816.66;5052590;28;20041;-86
2023/04/19 09:02:54;;;;;;;4.90;3.00;;;;;;;19.85;46.40;100822.91;5052520;28;20056;-87
2023/04/19 09:05:22;;;;;;;2.35;2.15;;;;;;;19.93;46.83;100819.22;5034866;28;20052;-87
2023/04/19 09:07:51;;;;;;;4.70;3.67;;;;;;;19.67;46.21;100808.31;5052856;28;20049;-90
2023/04/19 09:10:20;;;;;;;4.55;3.33;;;;;;;19.78;46.36;100803.97;5059511;28;20045;-87
2023/04/19 09:13:04;;;;;;;4.75;3.22;;;;;;;19.73;45.90;100802.22;5063890;28;20049;-87
2023/04/19 09:15:40;;;;;;;7.45;3.35;;;;;;;19.60;46.15;100804.09;5066125;28;20041;-90
2023/04/19 09:18:09;;;;;;;5.78;3.95;;;;;;;19.78;46.20;100803.16;5066967;28;20049;-91
2023/04/19 09:20:45;;;;;;;5.20;3.30;;;;;;;19.83;46.88;100803.78;5048153;28;20057;-90
2023/04/19 09:23:15;;;;;;;4.95;3.20;;;;;;;20.14;45.98;100793.47;5068736;28;20045;-91
2023/04/19 09:26:03;;;;;;;3.97;3.42;;;;;;;20.16;45.82;100785.59;5070062;28;20053;-90
2023/04/19 09:28:34;;;;;;;4.78;3.33;;;;;;;20.53;45.98;100782.13;5074898;28;20053;-90
2023/04/19 09:31:12;;;;;;;6.28;3.80;;;;;;;20.46;45.06;100787.41;5072917;28;20047;-90
2023/04/19 09:34:14;;;;;;;6.03;3.70;;;;;;;20.23;46.35;100779.50;5050357;28;20044;-91
2023/04/19 09:36:43;;;;;;;4.10;3.53;;;;;;;20.45;46.43;100786.63;5058207;28;20041;-91
2023/04/19 09:39:11;;;;;;;5.50;3.58;;;;;;;20.54;46.10;100778.97;5060405;28;20484;-92
2023/04/19 09:42:00;;;;;;;4.68;3.53;;;;;;;20.62;45.46;100774.50;5056422;28;20049;-91
2023/04/19 09:44:28;;;;;;;6.35;3.72;;;;;;;20.58;46.12;100761.63;5051781;28;20048;-91
2023/04/19 09:46:59;;;;;;;8.00;4.15;;;;;;;20.60;46.32;100760.13;5017710;28;20376;-91
2023/04/19 09:49:27;;;;;;;5.05;3.72;;;;;;;20.31;46.18;100758.31;5034356;28;20491;-89
2023/04/19 09:52:15;;;;;;;6.35;4.18;;;;;;;20.43;46.78;100749.19;5052075;28;20049;-91
2023/04/19 09:54:44;;;;;;;5.47;3.65;;;;;;;20.44;45.49;100745.25;5052824;28;20052;-91
2023/04/19 09:57:13;;;;;;;8.57;4.03;;;;;;;20.47;46.23;100750.94;5055940;28;20057;-91
2023/04/19 09:59:41;;;;;;;5.28;3.72;;;;;;;20.32;46.58;100744.06;5054820;28;20064;-91
2023/04/19 10:02:10;;;;;;;6.50;3.53;;;;;;;20.37;44.58;100732.75;5055051;28;20075;-91
2023/04/19 10:04:39;;;;;;;4.10;3.40;;;;;;;20.49;45.70;100731.94;5055644;28;20060;-92
2023/04/19 10:07:28;;;;;;;6.00;3.80;;;;;;;20.44;45.20;100734.16;5055423;28;20045;-91
2023/04/19 10:09:59;;;;;;;5.93;4.25;;;;;;;20.35;45.83;100732.28;5056186;28;20036;-91
2023/04/19 10:12:31;;;;;;;5.30;4.07;;;;;;;20.31;46.26;100725.78;5055344;28;20057;-91
2023/04/19 10:15:21;;;;;;;7.63;3.97;;;;;;;20.38;45.58;100720.47;5054923;28;20049;-91
2023/04/19 10:17:50;;;;;;;5.20;3.88;;;;;;;20.48;45.54;100715.63;5054494;28;20056;-92
2023/04/19 10:20:33;;;;;;;5.80;3.58;;;;;;;20.34;45.72;100721.50;5054905;28;20479;-94
2023/04/19 10:23:01;;;;;;;6.22;2.85;;;;;;;20.37;45.74;100702.16;5055557;28;20407;-93
2023/04/19 10:25:29;;;;;;;5.28;3.67;;;;;;;20.43;45.99;100710.28;5055029;28;20514;-93
2023/04/19 10:27:57;;;;;;;6.55;3.33;;;;;;;20.49;45.65;100706.94;5054944;28;20381;-93
2023/04/19 10:30:26;;;;;;;5.28;3.55;;;;;;;20.67;45.39;100704.75;5053213;28;20044;-93
2023/04/19 10:32:58;;;;;;;5.20;2.97;;;;;;;20.74;44.43;100695.84;5053291;28;20064;-91
2023/04/19 10:35:37;;;;;;;4.82;2.92;;;;;;;20.78;44.23;100677.31;5053538;28;20056;-94
2023/04/19 10:38:09;;;;;;;6.57;3.50;;;;;;;20.92;44.63;100684.53;5035667;28;20518;-93
2023/04/19 10:40:52;;;;;;;3.95;3.03;;;;;;;21.17;45.03;100676.94;5055199;28;20064;-93
2023/04/19 10:43:24;;;;;;;8.82;3.58;;;;;;;21.23;43.76;100676.72;5055568;28;20041;-93
2023/04/19 10:45:52;;;;;;;6.30;3.60;;;;;;;21.38;44.29;100673.22;5053801;28;20487;-94
2023/04/19 10:48:29;;;;;;;7.43;3.25;;;;;;;21.15;43.44;100661.75;5053303;28;20057;-92
2023/04/19 10:51:02;;;;;;;6.00;3.50;;;;;;;21.06;43.20;100664.69;5054889;28;20518;-92
2023/04/19 10:53:43;;;;;;;4.30;3.30;;;;;;;21.45;43.32;100648.38;5054565;28;20045;-91
2023/04/19 10:56:11;;;;;;;5.80;3.80;;;;;;;21.31;43.88;100659.88;5054131;28;20053;-92
2023/04/19 11:01:46;;;;;;;4.68;3.75;;;;;;;21.76;43.20;100640.50;5054151;28;20049;-92
2023/04/19 11:04:22;;;;;;;5.25;3.33;;;;;;;21.80;42.84;100632.25;5054712;28;20056;-92
2023/04/19 11:06:51;;;;;;;5.97;3.30;;;;;;;21.98;42.19;100630.75;5052764;28;20045;-92
2023/04/19 11:09:26;;;;;;;6.50;3.08;;;;;;;22.22;42.10;100626.19;5036079;28;20045;-92
2023/04/19 11:11:58;;;;;;;3.60;2.80;;;;;;;22.10;41.45;100612.34;5054248;28;20056;-95
2023/04/19 11:14:30;;;;;;;5.18;3.17;;;;;;;22.26;41.71;100612.34;5053796;28;20132;-92
2023/04/19 11:17:00;;;;;;;3.72;3.33;;;;;;;22.24;40.82;100612.69;5053816;28;20060;-92
2023/04/19 11:19:27;;;;;;;4.25;3.00;;;;;;;22.34;40.70;100613.34;5053872;28;20044;-93
2023/04/19 11:21:58;;;;;;;3.17;2.88;;;;;;;22.64;40.83;100593.38;5054494;28;20064;-92
2023/04/19 11:24:26;;;;;;;3.65;2.75;;;;;;;22.90;40.12;100594.75;5053745;28;20053;-91
2023/04/19 11:26:56;;;;;;;3.78;2.92;;;;;;;22.71;38.39;100592.69;5053502;28;20060;-92
2023/04/19 11:29:24;;;;;;;3.10;2.58;;;;;;;22.82;39.12;100593.75;5054278;28;20051;-91
2023/04/19 11:31:52;;;;;;;3.47;2.33;;;;;;;22.59;37.52;100586.09;5054454;28;20048;-91
2023/04/19 11:34:23;;;;;;;3.00;2.58;;;;;;;22.87;39.61;100578.75;5054441;28;20060;-91
2023/04/19 11:36:52;;;;;;;3.38;2.15;;;;;;;22.79;37.47;100584.13;5053571;28;20051;-91
2023/04/19 11:39:20;;;;;;;2.55;2.35;;;;;;;22.86;39.83;100577.13;5054404;28;20033;-90
2023/04/19 11:41:48;;;;;;;4.60;2.40;;;;;;;23.04;39.47;100567.16;5053699;28;20045;-92
2023/04/19 11:44:20;;;;;;;2.65;2.00;;;;;;;23.16;37.04;100566.19;5053640;28;20502;-93
2023/04/19 11:47:02;;;;;;;2.10;1.65;;;;;;;23.30;37.63;100568.47;5053753;28;20041;-94